Steuben, ME (04680)

12:19 PM EST on March 02, 2015 (GMT -0500)
Pigeon Hill | Change Station
CLOSE
Current Station
Personal Weather Station
Location: Steuben, ME
Elevation: 217 ft
Nearby Weather Stations

Elev 217 ft 44.46 °N, 67.89 °W | Updated 17 seconds ago

Overcast
Overcast
26.9 °F
Feels Like 16 °F
N
12.0
Wind Variable Wind from NNW
Gusts 18.0 mph

Today
High -- | Low -- °F
--% Chance of Precip.
Yesterday
High -- | Low -- °F
Precip. -- in
6:07 AM 5:20 PM
Waxing Gibbous, 92% visible
Pressure 29.78 in
Visibility 10.0 miles
Clouds Few 2600 ft
Mostly Cloudy 3300 ft
Overcast 3900 ft
Windchill 16 °F
Dew Point 22 °F
Humidity 83%
Rainfall 0.00 in
Snow Depth Not available.
UV 1 out of 12
Pollen .30 out of 12
Air Quality Not available.
Flu Activity Not available.
METAR KBHB 021715Z 27007G17KT 10SM FEW026 BKN033 OVC039 M01/M06 A2978 RMK AO1

More Conditions Fewer Conditions

Pressure 29.78 in
Visibility 10.0 miles
Clouds Few 2600 ft
Mostly Cloudy 3300 ft
Overcast 3900 ft
Windchill 16 °F
Dew Point 22 °F
Humidity 83%
Rainfall 0.00 in
Snow Depth Not available.
UV 1 out of 12
Pollen .30 out of 12
Air Quality Not available.
Flu Activity Not available.
METAR KBHB 021715Z 27007G17KT 10SM FEW026 BKN033 OVC039 M01/M06 A2978 RMK AO1

More Conditions Fewer Conditions

10-Day Weather Forecast

Almanac

Astronomy

Mar. 02, 2015 Rise Set
Actual Time
Civil Twilight
Nautical Twilight
Astronomical Twilight
Moon
Length of Visible Light
Length of Day
Tomorrow will be .
, % of the Moon is Illuminated

Today's Extremes

State Highs State Lows

Community

WunderPhotos

Upload Photos

1,801,855 photos uploaded!

WunderBlogs® & News

Nearby

Air Quality

  Air Quality AQ Index Pollutant
Not available.

Snow Depth

Station Depth Elevation

Earthquake Activity

City Distance Mag. Time & Date
Minimum magnitude displayed is 2.5.

Coastal Water Temperatures

Place Temperature

Nearby Weather Stations